sensor_id;sensor_type;location;lat;lon;timestamp;P1;durP1;ratioP1;P2;durP2;ratioP2
72406;SDS011;60396;47.550;18.828;2022-12-31T00:01:46;36.17;;;15.77;;
72406;SDS011;60396;47.550;18.828;2022-12-31T00:04:14;42.20;;;17.10;;
72406;SDS011;60396;47.550;18.828;2022-12-31T00:06:42;37.88;;;15.98;;
72406;SDS011;60396;47.550;18.828;2022-12-31T00:09:10;30.25;;;12.77;;
72406;SDS011;60396;47.550;18.828;2022-12-31T00:11:38;32.65;;;14.18;;
72406;SDS011;60396;47.550;18.828;2022-12-31T00:14:06;37.83;;;15.70;;
72406;SDS011;60396;47.550;18.828;2022-12-31T00:16:35;40.28;;;14.05;;
72406;SDS011;60396;47.550;18.828;2022-12-31T00:19:05;35.70;;;13.57;;
72406;SDS011;60396;47.550;18.828;2022-12-31T00:21:35;34.70;;;14.52;;
72406;SDS011;60396;47.550;18.828;2022-12-31T00:24:03;40.42;;;17.87;;
72406;SDS011;60396;47.550;18.828;2022-12-31T00:26:32;34.57;;;15.60;;
72406;SDS011;60396;47.550;18.828;2022-12-31T00:29:01;34.47;;;13.98;;
72406;SDS011;60396;47.550;18.828;2022-12-31T00:31:30;31.30;;;13.10;;
72406;SDS011;60396;47.550;18.828;2022-12-31T00:34:00;32.88;;;13.82;;
72406;SDS011;60396;47.550;18.828;2022-12-31T00:36:32;33.35;;;13.98;;
72406;SDS011;60396;47.550;18.828;2022-12-31T00:39:02;31.70;;;13.90;;
72406;SDS011;60396;47.550;18.828;2022-12-31T00:41:31;32.28;;;13.40;;
72406;SDS011;60396;47.550;18.828;2022-12-31T00:43:59;35.50;;;14.50;;
72406;SDS011;60396;47.550;18.828;2022-12-31T00:46:27;34.33;;;14.60;;
72406;SDS011;60396;47.550;18.828;2022-12-31T00:48:55;32.20;;;14.65;;
72406;SDS011;60396;47.550;18.828;2022-12-31T00:51:23;25.87;;;11.97;;
72406;SDS011;60396;47.550;18.828;2022-12-31T00:53:56;31.58;;;14.32;;
72406;SDS011;60396;47.550;18.828;2022-12-31T00:56:25;32.33;;;13.80;;
72406;SDS011;60396;47.550;18.828;2022-12-31T00:58:55;27.98;;;12.85;;
72406;SDS011;60396;47.550;18.828;2022-12-31T01:01:33;30.15;;;13.57;;
72406;SDS011;60396;47.550;18.828;2022-12-31T01:04:03;27.97;;;12.77;;
72406;SDS011;60396;47.550;18.828;2022-12-31T01:06:36;30.75;;;12.90;;
72406;SDS011;60396;47.550;18.828;2022-12-31T01:09:05;28.35;;;12.32;;
72406;SDS011;60396;47.550;18.828;2022-12-31T01:11:33;30.10;;;12.65;;
72406;SDS011;60396;47.550;18.828;2022-12-31T01:14:14;27.00;;;12.70;;
72406;SDS011;60396;47.550;18.828;2022-12-31T01:16:45;29.07;;;11.57;;
72406;SDS011;60396;47.550;18.828;2022-12-31T01:19:15;28.90;;;12.55;;
72406;SDS011;60396;47.550;18.828;2022-12-31T01:21:50;30.00;;;12.93;;
72406;SDS011;60396;47.550;18.828;2022-12-31T01:24:18;27.65;;;11.98;;
72406;SDS011;60396;47.550;18.828;2022-12-31T01:26:48;28.55;;;12.73;;
72406;SDS011;60396;47.550;18.828;2022-12-31T01:29:17;28.67;;;12.60;;
72406;SDS011;60396;47.550;18.828;2022-12-31T01:31:45;31.48;;;13.05;;
72406;SDS011;60396;47.550;18.828;2022-12-31T01:34:13;29.73;;;13.25;;
72406;SDS011;60396;47.550;18.828;2022-12-31T01:36:40;28.83;;;12.40;;
72406;SDS011;60396;47.550;18.828;2022-12-31T01:39:09;27.98;;;13.02;;
72406;SDS011;60396;47.550;18.828;2022-12-31T01:41:39;29.87;;;12.13;;
72406;SDS011;60396;47.550;18.828;2022-12-31T01:47:00;27.67;;;11.40;;
72406;SDS011;60396;47.550;18.828;2022-12-31T01:57:51;21.87;;;10.35;;
72406;SDS011;60396;47.550;18.828;2022-12-31T02:00:22;24.23;;;11.40;;
72406;SDS011;60396;47.550;18.828;2022-12-31T02:02:50;28.73;;;11.93;;
72406;SDS011;60396;47.550;18.828;2022-12-31T02:05:22;28.52;;;12.00;;
72406;SDS011;60396;47.550;18.828;2022-12-31T02:07:54;29.43;;;13.33;;
72406;SDS011;60396;47.550;18.828;2022-12-31T02:10:22;26.98;;;11.82;;
72406;SDS011;60396;47.550;18.828;2022-12-31T02:12:49;21.95;;;10.43;;
72406;SDS011;60396;47.550;18.828;2022-12-31T02:15:19;24.27;;;10.13;;
72406;SDS011;60396;47.550;18.828;2022-12-31T02:31:11;25.73;;;9.57;;
72406;SDS011;60396;47.550;18.828;2022-12-31T02:33:51;26.47;;;10.10;;
72406;SDS011;60396;47.550;18.828;2022-12-31T02:36:41;22.62;;;10.50;;
72406;SDS011;60396;47.550;18.828;2022-12-31T02:39:10;23.12;;;9.65;;
72406;SDS011;60396;47.550;18.828;2022-12-31T02:41:38;23.67;;;10.45;;
72406;SDS011;60396;47.550;18.828;2022-12-31T02:44:28;23.67;;;10.63;;
72406;SDS011;60396;47.550;18.828;2022-12-31T02:58:01;24.40;;;10.50;;
72406;SDS011;60396;47.550;18.828;2022-12-31T03:00:50;23.73;;;10.20;;
72406;SDS011;60396;47.550;18.828;2022-12-31T03:03:39;23.60;;;10.13;;
72406;SDS011;60396;47.550;18.828;2022-12-31T03:06:07;23.30;;;10.63;;
72406;SDS011;60396;47.550;18.828;2022-12-31T03:08:35;25.75;;;10.93;;
72406;SDS011;60396;47.550;18.828;2022-12-31T03:11:23;25.33;;;11.32;;
72406;SDS011;60396;47.550;18.828;2022-12-31T03:14:11;21.50;;;9.83;;
72406;SDS011;60396;47.550;18.828;2022-12-31T03:16:39;22.58;;;10.23;;
72406;SDS011;60396;47.550;18.828;2022-12-31T03:19:07;23.52;;;10.85;;
72406;SDS011;60396;47.550;18.828;2022-12-31T03:21:53;21.90;;;9.95;;
72406;SDS011;60396;47.550;18.828;2022-12-31T03:24:39;23.48;;;9.80;;
72406;SDS011;60396;47.550;18.828;2022-12-31T03:27:25;22.03;;;9.83;;
72406;SDS011;60396;47.550;18.828;2022-12-31T03:29:53;20.62;;;9.90;;
72406;SDS011;60396;47.550;18.828;2022-12-31T03:32:21;22.08;;;10.73;;
72406;SDS011;60396;47.550;18.828;2022-12-31T03:34:49;23.05;;;9.75;;
72406;SDS011;60396;47.550;18.828;2022-12-31T03:37:17;22.95;;;10.18;;
72406;SDS011;60396;47.550;18.828;2022-12-31T03:39:44;24.83;;;9.80;;
72406;SDS011;60396;47.550;18.828;2022-12-31T03:42:12;21.80;;;9.25;;
72406;SDS011;60396;47.550;18.828;2022-12-31T03:44:40;22.25;;;10.07;;
72406;SDS011;60396;47.550;18.828;2022-12-31T03:47:08;21.85;;;9.02;;
72406;SDS011;60396;47.550;18.828;2022-12-31T03:49:35;20.58;;;9.82;;
72406;SDS011;60396;47.550;18.828;2022-12-31T03:52:03;24.20;;;10.33;;
72406;SDS011;60396;47.550;18.828;2022-12-31T03:54:32;22.27;;;9.57;;
72406;SDS011;60396;47.550;18.828;2022-12-31T03:57:00;20.33;;;9.57;;
72406;SDS011;60396;47.550;18.828;2022-12-31T03:59:27;22.85;;;10.05;;
72406;SDS011;60396;47.550;18.828;2022-12-31T04:01:55;17.45;;;9.40;;
72406;SDS011;60396;47.550;18.828;2022-12-31T04:04:23;22.87;;;9.00;;
72406;SDS011;60396;47.550;18.828;2022-12-31T04:06:51;20.88;;;9.85;;
72406;SDS011;60396;47.550;18.828;2022-12-31T04:09:18;21.30;;;9.00;;
72406;SDS011;60396;47.550;18.828;2022-12-31T04:11:46;20.58;;;8.77;;
72406;SDS011;60396;47.550;18.828;2022-12-31T04:14:14;24.45;;;11.77;;
72406;SDS011;60396;47.550;18.828;2022-12-31T04:16:43;19.83;;;8.73;;
72406;SDS011;60396;47.550;18.828;2022-12-31T04:19:12;20.55;;;9.35;;
72406;SDS011;60396;47.550;18.828;2022-12-31T04:21:39;21.42;;;9.77;;
72406;SDS011;60396;47.550;18.828;2022-12-31T04:24:07;21.10;;;8.52;;
72406;SDS011;60396;47.550;18.828;2022-12-31T04:26:35;19.48;;;9.70;;
72406;SDS011;60396;47.550;18.828;2022-12-31T04:29:03;18.40;;;8.53;;
72406;SDS011;60396;47.550;18.828;2022-12-31T04:31:31;18.12;;;7.85;;
72406;SDS011;60396;47.550;18.828;2022-12-31T04:33:59;18.58;;;8.88;;
72406;SDS011;60396;47.550;18.828;2022-12-31T04:36:26;18.65;;;8.40;;
72406;SDS011;60396;47.550;18.828;2022-12-31T04:38:54;19.70;;;8.57;;
72406;SDS011;60396;47.550;18.828;2022-12-31T04:41:22;17.27;;;8.70;;
72406;SDS011;60396;47.550;18.828;2022-12-31T04:43:53;20.15;;;8.68;;
72406;SDS011;60396;47.550;18.828;2022-12-31T04:46:26;19.35;;;8.77;;
72406;SDS011;60396;47.550;18.828;2022-12-31T04:48:56;20.30;;;8.30;;
72406;SDS011;60396;47.550;18.828;2022-12-31T04:51:25;21.73;;;8.73;;
72406;SDS011;60396;47.550;18.828;2022-12-31T04:53:53;21.67;;;8.93;;
72406;SDS011;60396;47.550;18.828;2022-12-31T04:56:21;20.85;;;8.65;;
72406;SDS011;60396;47.550;18.828;2022-12-31T04:58:50;19.10;;;8.82;;
72406;SDS011;60396;47.550;18.828;2022-12-31T05:01:18;18.70;;;8.60;;
72406;SDS011;60396;47.550;18.828;2022-12-31T05:03:46;18.83;;;8.55;;
72406;SDS011;60396;47.550;18.828;2022-12-31T05:06:15;18.00;;;7.77;;
72406;SDS011;60396;47.550;18.828;2022-12-31T05:08:44;19.77;;;9.20;;
72406;SDS011;60396;47.550;18.828;2022-12-31T05:11:12;18.73;;;8.02;;
72406;SDS011;60396;47.550;18.828;2022-12-31T05:13:41;19.02;;;7.97;;
72406;SDS011;60396;47.550;18.828;2022-12-31T05:16:09;20.30;;;7.70;;
72406;SDS011;60396;47.550;18.828;2022-12-31T05:18:36;18.10;;;8.47;;
72406;SDS011;60396;47.550;18.828;2022-12-31T05:21:05;18.25;;;8.35;;
72406;SDS011;60396;47.550;18.828;2022-12-31T05:23:33;17.50;;;7.85;;
72406;SDS011;60396;47.550;18.828;2022-12-31T05:26:00;17.02;;;7.43;;
72406;SDS011;60396;47.550;18.828;2022-12-31T05:28:28;15.50;;;6.82;;
72406;SDS011;60396;47.550;18.828;2022-12-31T05:30:56;14.83;;;6.47;;
72406;SDS011;60396;47.550;18.828;2022-12-31T05:33:23;16.05;;;7.00;;
72406;SDS011;60396;47.550;18.828;2022-12-31T05:35:51;15.50;;;6.85;;
72406;SDS011;60396;47.550;18.828;2022-12-31T05:38:21;16.05;;;7.40;;
72406;SDS011;60396;47.550;18.828;2022-12-31T05:40:48;19.12;;;7.30;;
72406;SDS011;60396;47.550;18.828;2022-12-31T05:43:16;16.27;;;6.97;;
72406;SDS011;60396;47.550;18.828;2022-12-31T05:45:43;16.52;;;7.30;;
72406;SDS011;60396;47.550;18.828;2022-12-31T05:48:11;15.43;;;7.47;;
72406;SDS011;60396;47.550;18.828;2022-12-31T05:50:39;15.45;;;7.50;;
72406;SDS011;60396;47.550;18.828;2022-12-31T05:53:07;17.70;;;7.95;;
72406;SDS011;60396;47.550;18.828;2022-12-31T05:55:35;16.57;;;7.60;;
72406;SDS011;60396;47.550;18.828;2022-12-31T05:58:03;18.50;;;8.45;;
72406;SDS011;60396;47.550;18.828;2022-12-31T06:00:31;16.75;;;7.75;;
72406;SDS011;60396;47.550;18.828;2022-12-31T06:02:58;17.25;;;8.10;;
72406;SDS011;60396;47.550;18.828;2022-12-31T06:05:26;16.85;;;7.95;;
72406;SDS011;60396;47.550;18.828;2022-12-31T06:07:54;19.63;;;8.60;;
72406;SDS011;60396;47.550;18.828;2022-12-31T06:10:22;16.75;;;7.97;;
72406;SDS011;60396;47.550;18.828;2022-12-31T06:12:49;18.25;;;8.35;;
72406;SDS011;60396;47.550;18.828;2022-12-31T06:15:17;19.42;;;8.50;;
72406;SDS011;60396;47.550;18.828;2022-12-31T06:17:45;19.77;;;7.80;;
72406;SDS011;60396;47.550;18.828;2022-12-31T06:20:12;17.90;;;8.03;;
72406;SDS011;60396;47.550;18.828;2022-12-31T06:22:40;18.30;;;8.10;;
72406;SDS011;60396;47.550;18.828;2022-12-31T06:25:08;16.92;;;8.35;;
72406;SDS011;60396;47.550;18.828;2022-12-31T06:27:35;19.05;;;8.50;;
72406;SDS011;60396;47.550;18.828;2022-12-31T06:30:03;18.95;;;8.50;;
72406;SDS011;60396;47.550;18.828;2022-12-31T06:32:32;16.33;;;8.13;;
72406;SDS011;60396;47.550;18.828;2022-12-31T06:35:02;17.48;;;8.27;;
72406;SDS011;60396;47.550;18.828;2022-12-31T06:37:29;17.83;;;8.30;;
72406;SDS011;60396;47.550;18.828;2022-12-31T06:39:58;16.75;;;7.45;;
72406;SDS011;60396;47.550;18.828;2022-12-31T06:42:27;16.65;;;8.18;;
72406;SDS011;60396;47.550;18.828;2022-12-31T06:44:57;16.87;;;8.00;;
72406;SDS011;60396;47.550;18.828;2022-12-31T06:47:25;17.70;;;7.75;;
72406;SDS011;60396;47.550;18.828;2022-12-31T06:49:52;17.58;;;8.65;;
72406;SDS011;60396;47.550;18.828;2022-12-31T06:52:20;16.58;;;7.87;;
72406;SDS011;60396;47.550;18.828;2022-12-31T06:54:48;16.10;;;8.10;;
72406;SDS011;60396;47.550;18.828;2022-12-31T06:57:16;16.20;;;6.90;;
72406;SDS011;60396;47.550;18.828;2022-12-31T06:59:44;17.33;;;7.97;;
72406;SDS011;60396;47.550;18.828;2022-12-31T07:10:59;20.07;;;9.50;;
72406;SDS011;60396;47.550;18.828;2022-12-31T07:13:35;22.80;;;11.12;;
72406;SDS011;60396;47.550;18.828;2022-12-31T07:16:24;23.05;;;11.12;;
72406;SDS011;60396;47.550;18.828;2022-12-31T07:21:37;24.67;;;12.30;;
72406;SDS011;60396;47.550;18.828;2022-12-31T07:24:07;23.90;;;12.20;;
72406;SDS011;60396;47.550;18.828;2022-12-31T07:35:36;28.42;;;13.23;;
72406;SDS011;60396;47.550;18.828;2022-12-31T07:43:47;29.75;;;13.93;;
72406;SDS011;60396;47.550;18.828;2022-12-31T07:49:12;28.75;;;13.80;;
72406;SDS011;60396;47.550;18.828;2022-12-31T07:51:40;28.93;;;15.70;;
72406;SDS011;60396;47.550;18.828;2022-12-31T07:54:08;29.60;;;14.60;;
72406;SDS011;60396;47.550;18.828;2022-12-31T07:56:40;31.27;;;15.48;;
72406;SDS011;60396;47.550;18.828;2022-12-31T08:05:06;30.40;;;13.83;;
72406;SDS011;60396;47.550;18.828;2022-12-31T08:13:01;37.42;;;17.27;;
72406;SDS011;60396;47.550;18.828;2022-12-31T08:15:30;38.38;;;17.83;;
72406;SDS011;60396;47.550;18.828;2022-12-31T08:17:58;37.93;;;18.30;;
72406;SDS011;60396;47.550;18.828;2022-12-31T08:20:26;39.75;;;17.42;;
72406;SDS011;60396;47.550;18.828;2022-12-31T08:31:18;36.90;;;16.87;;
72406;SDS011;60396;47.550;18.828;2022-12-31T08:42:03;36.97;;;17.37;;
72406;SDS011;60396;47.550;18.828;2022-12-31T08:44:46;40.07;;;16.30;;
72406;SDS011;60396;47.550;18.828;2022-12-31T08:47:32;38.42;;;17.05;;
72406;SDS011;60396;47.550;18.828;2022-12-31T08:50:28;37.05;;;17.37;;
72406;SDS011;60396;47.550;18.828;2022-12-31T08:52:56;37.08;;;17.35;;
72406;SDS011;60396;47.550;18.828;2022-12-31T08:55:24;42.08;;;18.05;;
72406;SDS011;60396;47.550;18.828;2022-12-31T08:58:07;39.17;;;17.97;;
72406;SDS011;60396;47.550;18.828;2022-12-31T09:00:47;35.58;;;17.30;;
72406;SDS011;60396;47.550;18.828;2022-12-31T09:08:50;38.13;;;17.45;;
72406;SDS011;60396;47.550;18.828;2022-12-31T09:14:40;40.40;;;18.98;;
72406;SDS011;60396;47.550;18.828;2022-12-31T09:19:39;43.35;;;21.23;;
72406;SDS011;60396;47.550;18.828;2022-12-31T09:22:08;44.65;;;21.60;;
72406;SDS011;60396;47.550;18.828;2022-12-31T09:24:37;46.43;;;20.70;;
72406;SDS011;60396;47.550;18.828;2022-12-31T09:30:10;48.15;;;21.52;;
72406;SDS011;60396;47.550;18.828;2022-12-31T09:32:46;45.12;;;21.17;;
72406;SDS011;60396;47.550;18.828;2022-12-31T09:38:30;43.67;;;20.47;;
72406;SDS011;60396;47.550;18.828;2022-12-31T09:44:19;39.75;;;19.33;;
72406;SDS011;60396;47.550;18.828;2022-12-31T10:01:02;35.08;;;18.33;;
72406;SDS011;60396;47.550;18.828;2022-12-31T10:06:40;43.93;;;21.53;;
72406;SDS011;60396;47.550;18.828;2022-12-31T10:27:01;40.17;;;20.62;;
72406;SDS011;60396;47.550;18.828;2022-12-31T10:29:53;37.00;;;18.85;;
72406;SDS011;60396;47.550;18.828;2022-12-31T10:38:18;35.17;;;16.60;;
72406;SDS011;60396;47.550;18.828;2022-12-31T10:49:49;32.83;;;16.47;;
72406;SDS011;60396;47.550;18.828;2022-12-31T11:01:32;30.80;;;15.20;;
72406;SDS011;60396;47.550;18.828;2022-12-31T11:12:20;24.33;;;12.37;;
72406;SDS011;60396;47.550;18.828;2022-12-31T11:39:42;21.90;;;10.63;;
72406;SDS011;60396;47.550;18.828;2022-12-31T11:50:46;23.60;;;11.20;;
72406;SDS011;60396;47.550;18.828;2022-12-31T11:56:18;26.42;;;11.38;;
72406;SDS011;60396;47.550;18.828;2022-12-31T11:58:47;25.23;;;10.83;;
72406;SDS011;60396;47.550;18.828;2022-12-31T12:03:49;23.50;;;11.60;;
72406;SDS011;60396;47.550;18.828;2022-12-31T12:06:17;25.45;;;12.13;;
72406;SDS011;60396;47.550;18.828;2022-12-31T12:08:49;29.08;;;12.57;;
72406;SDS011;60396;47.550;18.828;2022-12-31T12:11:19;29.47;;;12.67;;
72406;SDS011;60396;47.550;18.828;2022-12-31T12:13:50;31.80;;;12.90;;
72406;SDS011;60396;47.550;18.828;2022-12-31T12:16:18;26.92;;;11.57;;
72406;SDS011;60396;47.550;18.828;2022-12-31T12:19:04;25.02;;;12.20;;
72406;SDS011;60396;47.550;18.828;2022-12-31T12:21:33;27.27;;;13.05;;
72406;SDS011;60396;47.550;18.828;2022-12-31T12:24:02;23.43;;;11.93;;
72406;SDS011;60396;47.550;18.828;2022-12-31T12:26:43;29.50;;;13.40;;
72406;SDS011;60396;47.550;18.828;2022-12-31T12:29:18;26.48;;;12.52;;
72406;SDS011;60396;47.550;18.828;2022-12-31T12:31:59;23.17;;;11.80;;
72406;SDS011;60396;47.550;18.828;2022-12-31T12:34:29;24.23;;;11.27;;
72406;SDS011;60396;47.550;18.828;2022-12-31T12:36:59;24.57;;;11.27;;
72406;SDS011;60396;47.550;18.828;2022-12-31T12:39:27;24.35;;;12.77;;
72406;SDS011;60396;47.550;18.828;2022-12-31T12:42:03;28.85;;;13.90;;
72406;SDS011;60396;47.550;18.828;2022-12-31T12:44:33;27.55;;;12.05;;
72406;SDS011;60396;47.550;18.828;2022-12-31T12:47:02;23.98;;;11.65;;
72406;SDS011;60396;47.550;18.828;2022-12-31T12:49:38;28.07;;;12.70;;
72406;SDS011;60396;47.550;18.828;2022-12-31T12:57:33;26.85;;;13.15;;
72406;SDS011;60396;47.550;18.828;2022-12-31T13:00:14;28.80;;;12.80;;
72406;SDS011;60396;47.550;18.828;2022-12-31T13:08:32;26.40;;;10.65;;
72406;SDS011;60396;47.550;18.828;2022-12-31T13:19:27;30.55;;;12.80;;
72406;SDS011;60396;47.550;18.828;2022-12-31T13:30:02;19.97;;;10.43;;
72406;SDS011;60396;47.550;18.828;2022-12-31T13:32:52;27.15;;;10.90;;
72406;SDS011;60396;47.550;18.828;2022-12-31T13:38:03;24.90;;;11.05;;
72406;SDS011;60396;47.550;18.828;2022-12-31T13:43:33;30.43;;;13.83;;
72406;SDS011;60396;47.550;18.828;2022-12-31T13:52:00;22.10;;;11.77;;
72406;SDS011;60396;47.550;18.828;2022-12-31T13:54:36;25.08;;;11.52;;
72406;SDS011;60396;47.550;18.828;2022-12-31T13:57:10;21.13;;;10.53;;
72406;SDS011;60396;47.550;18.828;2022-12-31T13:59:47;20.65;;;10.20;;
72406;SDS011;60396;47.550;18.828;2022-12-31T14:04:59;21.50;;;10.90;;
72406;SDS011;60396;47.550;18.828;2022-12-31T14:07:32;20.62;;;9.85;;
72406;SDS011;60396;47.550;18.828;2022-12-31T14:10:13;22.83;;;9.50;;
72406;SDS011;60396;47.550;18.828;2022-12-31T14:15:27;20.55;;;8.95;;
72406;SDS011;60396;47.550;18.828;2022-12-31T14:20:46;17.33;;;8.55;;
72406;SDS011;60396;47.550;18.828;2022-12-31T14:29:01;21.05;;;9.30;;
72406;SDS011;60396;47.550;18.828;2022-12-31T14:31:55;17.60;;;8.52;;
72406;SDS011;60396;47.550;18.828;2022-12-31T14:39:51;17.85;;;9.35;;
72406;SDS011;60396;47.550;18.828;2022-12-31T14:42:40;23.95;;;10.50;;
72406;SDS011;60396;47.550;18.828;2022-12-31T14:45:39;19.52;;;9.15;;
72406;SDS011;60396;47.550;18.828;2022-12-31T14:48:17;20.10;;;9.98;;
72406;SDS011;60396;47.550;18.828;2022-12-31T14:50:48;20.87;;;10.03;;
72406;SDS011;60396;47.550;18.828;2022-12-31T14:53:23;18.25;;;9.15;;
72406;SDS011;60396;47.550;18.828;2022-12-31T14:56:05;21.98;;;10.30;;
72406;SDS011;60396;47.550;18.828;2022-12-31T14:58:55;18.23;;;9.57;;
72406;SDS011;60396;47.550;18.828;2022-12-31T15:01:24;18.95;;;8.85;;
72406;SDS011;60396;47.550;18.828;2022-12-31T15:03:54;19.20;;;9.33;;
72406;SDS011;60396;47.550;18.828;2022-12-31T15:06:46;19.55;;;9.57;;
72406;SDS011;60396;47.550;18.828;2022-12-31T15:15:05;19.37;;;10.02;;
72406;SDS011;60396;47.550;18.828;2022-12-31T15:17:48;20.97;;;10.60;;
72406;SDS011;60396;47.550;18.828;2022-12-31T15:23:10;22.65;;;10.40;;
72406;SDS011;60396;47.550;18.828;2022-12-31T15:25:39;17.67;;;8.50;;
72406;SDS011;60396;47.550;18.828;2022-12-31T15:31:17;17.60;;;9.43;;
72406;SDS011;60396;47.550;18.828;2022-12-31T15:36:28;15.98;;;7.82;;
72406;SDS011;60396;47.550;18.828;2022-12-31T15:39:22;17.17;;;9.18;;
72406;SDS011;60396;47.550;18.828;2022-12-31T15:41:52;16.98;;;8.20;;
72406;SDS011;60396;47.550;18.828;2022-12-31T15:47:09;17.75;;;8.32;;
72406;SDS011;60396;47.550;18.828;2022-12-31T15:49:43;15.68;;;8.10;;
72406;SDS011;60396;47.550;18.828;2022-12-31T15:52:13;16.27;;;7.97;;
72406;SDS011;60396;47.550;18.828;2022-12-31T15:54:45;19.60;;;9.32;;
72406;SDS011;60396;47.550;18.828;2022-12-31T15:57:21;17.20;;;7.77;;
72406;SDS011;60396;47.550;18.828;2022-12-31T15:59:57;15.55;;;8.13;;
72406;SDS011;60396;47.550;18.828;2022-12-31T16:02:26;17.50;;;9.10;;
72406;SDS011;60396;47.550;18.828;2022-12-31T16:04:54;15.32;;;7.80;;
72406;SDS011;60396;47.550;18.828;2022-12-31T16:07:22;16.75;;;9.15;;
72406;SDS011;60396;47.550;18.828;2022-12-31T16:09:54;17.40;;;9.80;;
72406;SDS011;60396;47.550;18.828;2022-12-31T16:12:27;18.30;;;9.15;;
72406;SDS011;60396;47.550;18.828;2022-12-31T16:15:18;16.17;;;9.48;;
72406;SDS011;60396;47.550;18.828;2022-12-31T16:17:57;16.02;;;8.18;;
72406;SDS011;60396;47.550;18.828;2022-12-31T16:20:30;16.15;;;8.68;;
72406;SDS011;60396;47.550;18.828;2022-12-31T16:22:59;16.63;;;8.90;;
72406;SDS011;60396;47.550;18.828;2022-12-31T16:25:29;16.83;;;8.75;;
72406;SDS011;60396;47.550;18.828;2022-12-31T16:28:00;21.80;;;8.43;;
72406;SDS011;60396;47.550;18.828;2022-12-31T16:30:32;17.20;;;8.93;;
72406;SDS011;60396;47.550;18.828;2022-12-31T16:33:03;18.12;;;8.40;;
72406;SDS011;60396;47.550;18.828;2022-12-31T16:35:33;18.00;;;8.00;;
72406;SDS011;60396;47.550;18.828;2022-12-31T16:38:13;17.37;;;8.88;;
72406;SDS011;60396;47.550;18.828;2022-12-31T16:40:45;18.77;;;8.55;;
72406;SDS011;60396;47.550;18.828;2022-12-31T16:43:37;17.02;;;8.57;;
72406;SDS011;60396;47.550;18.828;2022-12-31T16:46:10;17.98;;;8.80;;
72406;SDS011;60396;47.550;18.828;2022-12-31T16:49:26;16.03;;;8.93;;
72406;SDS011;60396;47.550;18.828;2022-12-31T16:51:40;19.25;;;8.63;;
72406;SDS011;60396;47.550;18.828;2022-12-31T16:54:28;17.17;;;8.68;;
72406;SDS011;60396;47.550;18.828;2022-12-31T16:56:57;19.08;;;9.57;;
72406;SDS011;60396;47.550;18.828;2022-12-31T16:59:30;17.70;;;9.13;;
72406;SDS011;60396;47.550;18.828;2022-12-31T17:02:21;20.63;;;9.83;;
72406;SDS011;60396;47.550;18.828;2022-12-31T17:04:52;18.80;;;9.20;;
72406;SDS011;60396;47.550;18.828;2022-12-31T17:12:34;17.45;;;8.48;;
72406;SDS011;60396;47.550;18.828;2022-12-31T17:15:40;18.87;;;8.80;;
72406;SDS011;60396;47.550;18.828;2022-12-31T17:18:23;17.83;;;8.40;;
72406;SDS011;60396;47.550;18.828;2022-12-31T17:20:52;17.90;;;8.95;;
72406;SDS011;60396;47.550;18.828;2022-12-31T17:23:25;19.75;;;9.23;;
72406;SDS011;60396;47.550;18.828;2022-12-31T17:25:58;18.30;;;9.10;;
72406;SDS011;60396;47.550;18.828;2022-12-31T17:28:29;17.60;;;8.93;;
72406;SDS011;60396;47.550;18.828;2022-12-31T17:31:01;16.98;;;9.50;;
72406;SDS011;60396;47.550;18.828;2022-12-31T17:33:53;16.92;;;8.85;;
72406;SDS011;60396;47.550;18.828;2022-12-31T17:36:21;15.90;;;8.00;;
72406;SDS011;60396;47.550;18.828;2022-12-31T17:38:49;20.90;;;9.40;;
72406;SDS011;60396;47.550;18.828;2022-12-31T17:41:21;15.67;;;8.27;;
72406;SDS011;60396;47.550;18.828;2022-12-31T17:43:54;21.98;;;8.15;;
72406;SDS011;60396;47.550;18.828;2022-12-31T17:46:23;15.18;;;8.18;;
72406;SDS011;60396;47.550;18.828;2022-12-31T17:49:00;16.25;;;7.40;;
72406;SDS011;60396;47.550;18.828;2022-12-31T17:51:28;15.68;;;7.60;;
72406;SDS011;60396;47.550;18.828;2022-12-31T17:53:58;18.97;;;8.50;;
72406;SDS011;60396;47.550;18.828;2022-12-31T17:56:26;18.65;;;8.48;;
72406;SDS011;60396;47.550;18.828;2022-12-31T17:58:53;15.43;;;7.45;;
72406;SDS011;60396;47.550;18.828;2022-12-31T18:01:22;18.85;;;10.20;;
72406;SDS011;60396;47.550;18.828;2022-12-31T18:03:50;13.50;;;7.50;;
72406;SDS011;60396;47.550;18.828;2022-12-31T18:06:18;16.07;;;7.23;;
72406;SDS011;60396;47.550;18.828;2022-12-31T18:08:46;17.00;;;7.07;;
72406;SDS011;60396;47.550;18.828;2022-12-31T18:11:15;14.87;;;7.75;;
72406;SDS011;60396;47.550;18.828;2022-12-31T18:13:46;20.08;;;7.35;;
72406;SDS011;60396;47.550;18.828;2022-12-31T18:16:15;17.08;;;8.63;;
72406;SDS011;60396;47.550;18.828;2022-12-31T18:18:42;14.40;;;7.17;;
72406;SDS011;60396;47.550;18.828;2022-12-31T18:21:28;21.25;;;9.70;;
72406;SDS011;60396;47.550;18.828;2022-12-31T18:24:00;16.00;;;7.32;;
72406;SDS011;60396;47.550;18.828;2022-12-31T18:26:28;14.98;;;7.07;;
72406;SDS011;60396;47.550;18.828;2022-12-31T18:28:57;16.83;;;8.55;;
72406;SDS011;60396;47.550;18.828;2022-12-31T18:31:27;17.53;;;10.13;;
72406;SDS011;60396;47.550;18.828;2022-12-31T18:33:56;15.23;;;8.10;;
72406;SDS011;60396;47.550;18.828;2022-12-31T18:36:24;15.98;;;7.78;;
72406;SDS011;60396;47.550;18.828;2022-12-31T18:38:53;13.70;;;6.43;;
72406;SDS011;60396;47.550;18.828;2022-12-31T18:41:21;14.57;;;5.87;;
72406;SDS011;60396;47.550;18.828;2022-12-31T18:43:50;11.67;;;5.47;;
72406;SDS011;60396;47.550;18.828;2022-12-31T18:46:19;14.40;;;6.05;;
72406;SDS011;60396;47.550;18.828;2022-12-31T18:48:48;12.65;;;6.10;;
72406;SDS011;60396;47.550;18.828;2022-12-31T18:51:20;14.00;;;6.32;;
72406;SDS011;60396;47.550;18.828;2022-12-31T18:53:58;11.77;;;5.22;;
72406;SDS011;60396;47.550;18.828;2022-12-31T18:56:30;13.53;;;5.50;;
72406;SDS011;60396;47.550;18.828;2022-12-31T18:58:59;12.70;;;6.43;;
72406;SDS011;60396;47.550;18.828;2022-12-31T19:01:30;14.82;;;6.18;;
72406;SDS011;60396;47.550;18.828;2022-12-31T19:04:10;11.45;;;5.90;;
72406;SDS011;60396;47.550;18.828;2022-12-31T19:06:38;12.80;;;5.47;;
72406;SDS011;60396;47.550;18.828;2022-12-31T19:09:06;13.33;;;5.50;;
72406;SDS011;60396;47.550;18.828;2022-12-31T19:11:54;11.18;;;4.68;;
72406;SDS011;60396;47.550;18.828;2022-12-31T19:14:22;11.30;;;5.22;;
72406;SDS011;60396;47.550;18.828;2022-12-31T19:16:51;15.60;;;6.95;;
72406;SDS011;60396;47.550;18.828;2022-12-31T19:19:20;12.68;;;6.43;;
72406;SDS011;60396;47.550;18.828;2022-12-31T19:21:48;12.97;;;6.50;;
72406;SDS011;60396;47.550;18.828;2022-12-31T19:26:51;13.52;;;6.82;;
72406;SDS011;60396;47.550;18.828;2022-12-31T19:29:20;17.37;;;6.60;;
72406;SDS011;60396;47.550;18.828;2022-12-31T19:31:49;14.40;;;7.22;;
72406;SDS011;60396;47.550;18.828;2022-12-31T19:34:17;19.03;;;7.63;;
72406;SDS011;60396;47.550;18.828;2022-12-31T19:36:45;16.37;;;6.78;;
72406;SDS011;60396;47.550;18.828;2022-12-31T19:39:14;15.95;;;7.25;;
72406;SDS011;60396;47.550;18.828;2022-12-31T19:41:44;12.90;;;6.22;;
72406;SDS011;60396;47.550;18.828;2022-12-31T19:44:15;13.45;;;5.93;;
72406;SDS011;60396;47.550;18.828;2022-12-31T19:46:45;12.73;;;6.17;;